Check out our new BloomSky Weather System.

Active alerts


No alerts


Thunder radar  blitzortung!


Rain radar more information rain snow radar


Visit our other weather sites:

Template documentation
and downloads

And another site



Weather Underground History page Text

Daily Summary for January 8, 2017 Units:  Metric    English   Both
« Previous Day
Next Day »
Daily Weekly Monthly Yearly Custom
  High: Low: Average:
Temperature: 9.9 °C -5.3 °C 2.9 °C
Dew Point: 2.5 °C -9.9 °C -3.1 °C
Humidity: 93 % 30 % 69 %
Wind Speed: 16.1 km/h 0 km/h 2.7 km/h
Wind Gust: 20.9 km/h - -
Wind:- - SE
Pressure: 1041.5 hPa 1033.1 hPa -
Precipitation: 0 mm    
Historical Graphs
 
 
Tabular Data for January 8, 2017
Time Temperature Dew Point Pressure Wind Wind Speed Wind Gust Humidity Rainfall Rate (Hourly)
00:02 -3.3 °C -6.3 °C 1041.5 hPa Calm     80 % 0 mm
00:07 -3.4 °C -6.4 °C 1041.5 hPa Calm     80 % 0 mm
00:13 -3.4 °C -6.4 °C 1041.5 hPa Calm     80 % 0 mm
00:18 -3.4 °C -6.2 °C 1041.5 hPa Calm     81 % 0 mm
00:23 -3.3 °C -6.1 °C 1041.5 hPa Calm     81 % 0 mm
00:28 -3.3 °C -5.9 °C 1041.5 hPa Calm     82 % 0 mm
00:33 -3.2 °C -5.7 °C 1041.5 hPa Calm     83 % 0 mm
00:38 -3.3 °C -5.9 °C 1041.5 hPa Calm     82 % 0 mm
00:43 -3.5 °C -6.1 °C 1041.5 hPa Calm     82 % 0 mm
00:48 -3.7 °C -6.2 °C 1041.5 hPa Calm     83 % 0 mm
00:53 -3.8 °C -6.3 °C 1041.5 hPa Calm     83 % 0 mm
00:58 -3.7 °C -5.9 °C 1041.2 hPa Calm     85 % 0 mm
01:03 -3.4 °C -5.6 °C 1041.2 hPa Calm     85 % 0 mm
01:08 -3.4 °C -5.7 °C 1041.2 hPa Calm     84 % 0 mm
01:13 -3.5 °C -5.7 °C 1041.2 hPa Calm     85 % 0 mm
01:18 -3.6 °C -5.8 °C 1041.2 hPa Calm     85 % 0 mm
01:23 -3.6 °C -5.8 °C 1041.2 hPa Calm     85 % 0 mm
01:28 -3.6 °C -5.8 °C 1041.2 hPa Calm     85 % 0 mm
01:33 -3.6 °C -5.8 °C 1041.2 hPa Calm     85 % 0 mm
01:38 -3.7 °C -5.9 °C 1041.2 hPa Calm     85 % 0 mm
01:43 -3.7 °C -5.9 °C 1041.2 hPa Calm     85 % 0 mm
01:48 -3.8 °C -5.9 °C 1041.2 hPa Calm     85 % 0 mm
01:53 -3.9 °C -6 °C 1041.2 hPa Calm     85 % 0 mm
01:58 -4 °C -6.1 °C 1040.9 hPa Calm     85 % 0 mm
02:03 -4.1 °C -6.1 °C 1040.9 hPa Calm     86 % 0 mm
02:08 -4 °C -6 °C 1040.9 hPa Calm     86 % 0 mm
02:13 -3.9 °C -5.7 °C 1040.9 hPa Calm     87 % 0 mm
02:18 -3.8 °C -5.8 °C 1040.9 hPa Calm     86 % 0 mm
02:23 -3.9 °C -5.9 °C 1040.9 hPa Calm     86 % 0 mm
02:28 -4.1 °C -6.1 °C 1040.9 hPa Calm     86 % 0 mm
02:33 -4 °C -5.8 °C 1040.9 hPa Calm     87 % 0 mm
02:38 -3.9 °C -5.7 °C 1040.9 hPa Calm     87 % 0 mm
02:43 -3.9 °C -5.7 °C 1040.9 hPa Calm     87 % 0 mm
02:48 -4 °C -6 °C 1040.9 hPa Calm     86 % 0 mm
02:53 -4.1 °C -6.1 °C 1040.9 hPa Calm     86 % 0 mm
02:58 -4.2 °C -6.2 °C 1040.9 hPa Calm     86 % 0 mm
03:03 -4.4 °C -6.4 °C 1040.9 hPa Calm     86 % 0 mm
03:08 -4.5 °C -6.3 °C 1040.9 hPa Calm     87 % 0 mm
03:13 -4.5 °C -6.3 °C 1040.9 hPa Calm     87 % 0 mm
03:18 -4.6 °C -6.4 °C 1040.9 hPa Calm     87 % 0 mm
03:23 -4.7 °C -6.5 °C 1040.9 hPa Calm     87 % 0 mm
03:28 -4.8 °C -6.5 °C 1040.9 hPa Calm     88 % 0 mm
03:33 -4.9 °C -6.6 °C 1040.9 hPa Calm     88 % 0 mm
03:38 -4.8 °C -6.3 °C 1040.9 hPa Calm     89 % 0 mm
03:43 -4.6 °C -6.1 °C 1040.9 hPa Calm     89 % 0 mm
03:48 -4.6 °C -6.1 °C 1040.9 hPa Calm     89 % 0 mm
03:53 -4.4 °C -5.8 °C 1040.9 hPa Calm     90 % 0 mm
03:58 -4.3 °C -5.8 °C 1040.9 hPa Calm     89 % 0 mm
04:03 -4.3 °C -6 °C 1040.9 hPa Calm     88 % 0 mm
04:08 -4.6 °C -6.3 °C 1040.5 hPa Calm     88 % 0 mm
04:14 -4.6 °C -6.3 °C 1040.5 hPa Calm     88 % 0 mm
04:19 -4.7 °C -6.4 °C 1040.5 hPa Calm     88 % 0 mm
04:24 -4.8 °C -6.5 °C 1040.5 hPa Calm     88 % 0 mm
04:29 -4.7 °C -6.2 °C 1040.5 hPa Calm     89 % 0 mm
04:34 -4.7 °C -6.2 °C 1040.5 hPa Calm     89 % 0 mm
04:39 -4.7 °C -6.2 °C 1040.5 hPa Calm     89 % 0 mm
04:44 -4.7 °C -6.2 °C 1040.2 hPa Calm     89 % 0 mm
04:49 -4.9 °C -6.4 °C 1040.2 hPa Calm     89 % 0 mm
04:54 -4.9 °C -6.4 °C 1040.2 hPa Calm     89 % 0 mm
04:59 -5.1 °C -6.6 °C 1039.8 hPa Calm     89 % 0 mm
05:04 -5.2 °C -6.9 °C 1039.8 hPa Calm     88 % 0 mm
05:09 -5.2 °C -6.7 °C 1039.8 hPa Calm     89 % 0 mm
05:14 -5.3 °C -6.8 °C 1039.8 hPa Calm     89 % 0 mm
05:19 -5.3 °C -6.7 °C 1039.8 hPa Calm     90 % 0 mm
05:24 -5.2 °C -6.4 °C 1039.8 hPa Calm     91 % 0 mm
05:29 -4.9 °C -6.1 °C 1039.8 hPa Calm     91 % 0 mm
05:34 -5.1 °C -6.3 °C 1039.8 hPa Calm     91 % 0 mm
05:39 -5.2 °C -6.4 °C 1039.8 hPa Calm     91 % 0 mm
05:44 -5.1 °C -6.2 °C 1040.2 hPa Calm     92 % 0 mm
05:49 -5 °C -6.2 °C 1040.2 hPa Calm     91 % 0 mm
05:54 -4.9 °C -6.1 °C 1040.2 hPa Calm     91 % 0 mm
05:59 -5 °C -6.2 °C 1040.5 hPa Calm     91 % 0 mm
06:04 -5 °C -6.2 °C 1040.5 hPa Calm     91 % 0 mm
06:09 -5 °C -6.2 °C 1040.5 hPa Calm     91 % 0 mm
06:14 -4.9 °C -6.1 °C 1040.5 hPa Calm     91 % 0 mm
06:19 -4.9 °C -6.1 °C 1040.9 hPa Calm     91 % 0 mm
06:24 -4.9 °C -6.1 °C 1040.5 hPa Calm     91 % 0 mm
06:29 -5.1 °C -6.3 °C 1040.9 hPa Calm     91 % 0 mm
06:34 -5.1 °C -6.3 °C 1040.9 hPa Calm     91 % 0 mm
06:39 -5.1 °C -6.3 °C 1040.9 hPa Calm     91 % 0 mm
06:44 -5.1 °C -6.3 °C 1040.9 hPa Calm     91 % 0 mm
06:49 -5.1 °C -6.3 °C 1040.9 hPa Calm     91 % 0 mm
06:54 -5.1 °C -6.2 °C 1040.9 hPa Calm     92 % 0 mm
06:59 -5.1 °C -6.2 °C 1040.9 hPa Calm     92 % 0 mm
07:04 -5.1 °C -6.3 °C 1040.5 hPa Calm     91 % 0 mm
07:09 -5.2 °C -6.4 °C 1040.9 hPa Calm     91 % 0 mm
07:14 -5.3 °C -6.5 °C 1040.5 hPa Calm     91 % 0 mm
07:21 -5.3 °C -6.4 °C 1040.9 hPa Calm     92 % 0 mm
07:43 -5.1 °C -6.2 °C 1040.9 hPa Calm     92 % 0 mm
07:49 -4.8 °C -5.8 °C 1041.2 hPa Calm     93 % 0 mm
07:57 -4 °C -5 °C 1041.2 hPa Calm     93 % 0 mm
08:15 -1.9 °C -3.2 °C 1041.5 hPa North 1.6 km/h   91 % 0 mm
08:29 -0.7 °C -3.1 °C 1041.5 hPa Calm   1.6 km/h 84 % 0 mm
08:34 -0.3 °C -3 °C 1041.2 hPa East 3.2 km/h 3.2 km/h 82 % 0 mm
08:39 -0.1 °C -3.8 °C 1041.2 hPa Calm   3.2 km/h 76 % 0 mm
08:44 0.2 °C -4.1 °C 1041.5 hPa Calm   4.8 km/h 73 % 0 mm
08:49 0.7 °C -4.1 °C 1041.5 hPa Calm   4.8 km/h 70 % 0 mm
08:54 0.8 °C -5 °C 1041.5 hPa ENE 1.6 km/h 4.8 km/h 65 % 0 mm
08:59 1.1 °C -4.5 °C 1041.2 hPa ESE 1.6 km/h 8 km/h 66 % 0 mm
09:04 1.4 °C -4.9 °C 1041.2 hPa East 6.4 km/h 8 km/h 63 % 0 mm
09:09 1.4 °C -5.5 °C 1041.2 hPa Calm   8 km/h 60 % 0 mm
09:14 1.7 °C -5.9 °C 1041.2 hPa ENE 3.2 km/h 8 km/h 57 % 0 mm
09:19 1.8 °C -5.6 °C 1041.2 hPa NNW 3.2 km/h 8 km/h 58 % 0 mm
09:24 2 °C -5.9 °C 1041.2 hPa East 8 km/h 8 km/h 56 % 0 mm
09:29 2.2 °C -5.9 °C 1041.5 hPa SE 3.2 km/h 9.7 km/h 55 % 0 mm
09:34 2.5 °C -6.1 °C 1041.2 hPa ENE 1.6 km/h 9.7 km/h 53 % 0 mm
09:39 2.7 °C -6.2 °C 1041.2 hPa East 3.2 km/h 9.7 km/h 52 % 0 mm
09:44 2.7 °C -7 °C 1041.2 hPa ESE 1.6 km/h 9.7 km/h 49 % 0 mm
09:49 2.8 °C -7.4 °C 1041.2 hPa ESE 1.6 km/h 9.7 km/h 47 % 0 mm
09:54 3.1 °C -7.1 °C 1041.2 hPa ENE 6.4 km/h 9.7 km/h 47 % 0 mm
09:59 3.3 °C -6.9 °C 1041.2 hPa SE 6.4 km/h 9.7 km/h 47 % 0 mm
10:04 3.3 °C -7.8 °C 1041.2 hPa Calm   11.3 km/h 44 % 0 mm
10:09 3.3 °C -7.5 °C 1041.2 hPa Calm   17.7 km/h 45 % 0 mm
10:14 3.6 °C -7.8 °C 1040.9 hPa ESE 4.8 km/h 17.7 km/h 43 % 0 mm
10:19 3.7 °C -6.9 °C 1040.9 hPa SE 4.8 km/h 17.7 km/h 46 % 0 mm
10:24 4.1 °C -7.1 °C 1040.9 hPa South 9.7 km/h 14.5 km/h 44 % 0 mm
10:29 4.3 °C -6.6 °C 1040.9 hPa SSE 3.2 km/h 14.5 km/h 45 % 0 mm
10:34 4.4 °C -6.8 °C 1040.9 hPa East 4.8 km/h 14.5 km/h 44 % 0 mm
10:39 4.7 °C -6.5 °C 1040.9 hPa East 3.2 km/h 11.3 km/h 44 % 0 mm
10:44 4.8 °C -7.3 °C 1040.9 hPa SE 8 km/h 11.3 km/h 41 % 0 mm
10:49 4.8 °C -8.3 °C 1040.9 hPa SE 3.2 km/h 11.3 km/h 38 % 0 mm
10:55 5.2 °C -7.6 °C 1040.9 hPa SE 6.4 km/h 14.5 km/h 39 % 0 mm
11:00 5.3 °C -8.9 °C 1040.9 hPa ESE 3.2 km/h 14.5 km/h 35 % 0 mm
11:05 5.3 °C -8.9 °C 1040.9 hPa ESE 9.7 km/h 14.5 km/h 35 % 0 mm
11:10 5.3 °C -9.3 °C 1040.9 hPa ESE 8 km/h 14.5 km/h 34 % 0 mm
11:15 5.6 °C -8.7 °C 1040.9 hPa ESE 4.8 km/h 16.1 km/h 35 % 0 mm
11:20 5.8 °C -8.5 °C 1040.5 hPa SSE 6.4 km/h 16.1 km/h 35 % 0 mm
11:25 6 °C -8 °C 1040.5 hPa ENE 4.8 km/h 14.5 km/h 36 % 0 mm
11:30 6.1 °C -9.4 °C 1040.5 hPa ESE 6.4 km/h 14.5 km/h 32 % 0 mm
11:35 6.2 °C -9.3 °C 1040.5 hPa SE 3.2 km/h 16.1 km/h 32 % 0 mm
11:40 6.2 °C -9.3 °C 1040.5 hPa SE 4.8 km/h 16.1 km/h 32 % 0 mm
11:45 6.3 °C -9.6 °C 1040.5 hPa SE 8 km/h 14.5 km/h 31 % 0 mm
11:50 6.4 °C -9.1 °C 1040.2 hPa SSE 3.2 km/h 14.5 km/h 32 % 0 mm
11:55 6.4 °C -9.9 °C 1040.2 hPa East 11.3 km/h 14.5 km/h 30 % 0 mm
12:00 6.7 °C -8.5 °C 1039.8 hPa East 4.8 km/h 14.5 km/h 33 % 0 mm
12:05 6.8 °C -9.2 °C 1039.8 hPa SE 4.8 km/h 17.7 km/h 31 % 0 mm
12:10 6.6 °C -9.3 °C 1039.8 hPa SE 4.8 km/h 17.7 km/h 31 % 0 mm
12:15 6.8 °C -8.8 °C 1039.8 hPa SSE 4.8 km/h 17.7 km/h 32 % 0 mm
12:20 6.8 °C -8.8 °C 1039.8 hPa ENE 1.6 km/h 17.7 km/h 32 % 0 mm
12:25 6.8 °C -9.2 °C 1039.5 hPa NE 1.6 km/h 17.7 km/h 31 % 0 mm
12:30 7.1 °C -8.5 °C 1039.5 hPa South 9.7 km/h 17.7 km/h 32 % 0 mm
12:35 7.3 °C -8.3 °C 1039.5 hPa SE 4.8 km/h 12.9 km/h 32 % 0 mm
12:40 7.8 °C -7.5 °C 1039.2 hPa East 3.2 km/h 12.9 km/h 33 % 0 mm
12:45 8.1 °C -7.2 °C 1039.2 hPa SSE 11.3 km/h 12.9 km/h 33 % 0 mm
12:50 8.2 °C -7.1 °C 1039.2 hPa SSE 4.8 km/h 12.9 km/h 33 % 0 mm
12:56 8.5 °C -6.9 °C 1038.8 hPa ESE 6.4 km/h 12.9 km/h 33 % 0 mm
13:01 8.1 °C -6.5 °C 1038.8 hPa South 6.4 km/h 14.5 km/h 35 % 0 mm
13:06 8 °C -6.5 °C 1038.5 hPa South 3.2 km/h 14.5 km/h 35 % 0 mm
13:11 8.2 °C -6.7 °C 1038.5 hPa ESE 6.4 km/h 14.5 km/h 34 % 0 mm
13:16 8.4 °C -6.2 °C 1038.5 hPa SE 3.2 km/h 12.9 km/h 35 % 0 mm
13:21 8.4 °C -6.2 °C 1038.1 hPa ENE 11.3 km/h 14.5 km/h 35 % 0 mm
13:26 8.3 °C -5.9 °C 1038.1 hPa SSE 9.7 km/h 14.5 km/h 36 % 0 mm
13:31 8.6 °C -5.3 °C 1038.1 hPa SE 4.8 km/h 14.5 km/h 37 % 0 mm
13:36 8.6 °C -6 °C 1037.8 hPa ESE 4.8 km/h 12.9 km/h 35 % 0 mm
13:41 8.6 °C -5.3 °C 1037.8 hPa SSE 8 km/h 14.5 km/h 37 % 0 mm
13:46 8.5 °C -5 °C 1037.5 hPa ESE 4.8 km/h 16.1 km/h 38 % 0 mm
13:51 8.6 °C -5.3 °C 1037.5 hPa ESE 8 km/h 17.7 km/h 37 % 0 mm
13:56 8.7 °C -4.2 °C 1037.5 hPa SE 1.6 km/h 17.7 km/h 40 % 0 mm
14:01 8.9 °C -3.6 °C 1037.1 hPa ESE 16.1 km/h 20.9 km/h 41 % 0 mm
14:06 8.8 °C -3.7 °C 1037.1 hPa East 1.6 km/h 20.9 km/h 41 % 0 mm
14:11 8.8 °C -3.4 °C 1037.1 hPa ENE 6.4 km/h 20.9 km/h 42 % 0 mm
14:16 9 °C -3.2 °C 1036.8 hPa SSE 9.7 km/h 16.1 km/h 42 % 0 mm
14:21 9 °C -2.9 °C 1036.8 hPa SSE 3.2 km/h 17.7 km/h 43 % 0 mm
14:26 9.4 °C -2.6 °C 1036.5 hPa ESE 3.2 km/h 17.7 km/h 43 % 0 mm
14:31 9.4 °C -2.2 °C 1036.5 hPa South 9.7 km/h 19.3 km/h 44 % 0 mm
14:32 9.3 °C -2.3 °C 1036.5 hPa ESE 8 km/h 19.3 km/h 44 % 0 mm
14:37 9.4 °C -1.6 °C 1036.5 hPa SSW 12.9 km/h 19.3 km/h 46 % 0 mm
14:42 9.6 °C -1.5 °C 1036.5 hPa SSW 3.2 km/h 19.3 km/h 46 % 0 mm
14:47 9.6 °C -1.2 °C 1036.5 hPa SE 8 km/h 16.1 km/h 47 % 0 mm
14:52 9.5 °C -1 °C 1036.1 hPa ESE 6.4 km/h 16.1 km/h 48 % 0 mm
14:57 9.4 °C -0.5 °C 1036.1 hPa SSE 4.8 km/h 16.1 km/h 50 % 0 mm
15:02 9.6 °C 0.2 °C 1036.1 hPa East 8 km/h 17.7 km/h 52 % 0 mm
15:07 9.6 °C 0 °C 1036.1 hPa South 8 km/h 17.7 km/h 51 % 0 mm
15:12 9.8 °C 0.4 °C 1036.1 hPa South 9.7 km/h 17.7 km/h 52 % 0 mm
15:17 9.9 °C 0.2 °C 1035.8 hPa ESE 8 km/h 16.1 km/h 51 % 0 mm
15:22 9.9 °C 0.5 °C 1036.1 hPa ESE 11.3 km/h 14.5 km/h 52 % 0 mm
15:27 9.7 °C 0.6 °C 1035.8 hPa SSE 9.7 km/h 19.3 km/h 53 % 0 mm
15:32 9.7 °C 0.6 °C 1035.8 hPa East 6.4 km/h 19.3 km/h 53 % 0 mm
15:37 9.7 °C 0.6 °C 1035.8 hPa ESE 4.8 km/h 19.3 km/h 53 % 0 mm
15:42 9.7 °C 0.8 °C 1035.4 hPa ESE 14.5 km/h 17.7 km/h 54 % 0 mm
15:47 9.6 °C 0.7 °C 1035.4 hPa ESE 8 km/h 19.3 km/h 54 % 0 mm
15:52 9.7 °C 0.8 °C 1035.4 hPa East 4.8 km/h 19.3 km/h 54 % 0 mm
15:57 9.7 °C 0.8 °C 1035.4 hPa SE 3.2 km/h 19.3 km/h 54 % 0 mm
16:02 9.8 °C 0.9 °C 1035.4 hPa ENE 9.7 km/h 17.7 km/h 54 % 0 mm
16:07 9.6 °C 0.7 °C 1035.4 hPa SE 9.7 km/h 17.7 km/h 54 % 0 mm
16:12 9.7 °C 1.1 °C 1035.4 hPa South 6.4 km/h 17.7 km/h 55 % 0 mm
16:17 9.7 °C 0.8 °C 1035.1 hPa SE 9.7 km/h 17.7 km/h 54 % 0 mm
16:22 9.6 °C 1.2 °C 1035.1 hPa East 6.4 km/h 17.7 km/h 56 % 0 mm
16:27 9.6 °C 1.2 °C 1035.1 hPa ESE 3.2 km/h 17.7 km/h 56 % 0 mm
16:32 9.6 °C 1.2 °C 1035.1 hPa ESE 9.7 km/h 17.7 km/h 56 % 0 mm
16:37 9.5 °C 1.2 °C 1034.8 hPa East 3.2 km/h 17.7 km/h 56 % 0 mm
16:42 9.4 °C 1.1 °C 1034.8 hPa SE 9.7 km/h 17.7 km/h 56 % 0 mm
16:47 9.3 °C 1.2 °C 1034.8 hPa SSE 6.4 km/h 16.1 km/h 57 % 0 mm
16:52 9.3 °C 1.5 °C 1034.8 hPa SW 4.8 km/h 16.1 km/h 58 % 0 mm
16:57 9.3 °C 1.5 °C 1034.8 hPa East 8 km/h 16.1 km/h 58 % 0 mm
17:02 9.2 °C 1.1 °C 1034.8 hPa SSE 6.4 km/h 14.5 km/h 57 % 0 mm
17:07 9 °C 1.2 °C 1034.8 hPa SSE 9.7 km/h 16.1 km/h 58 % 0 mm
17:12 8.9 °C 1.3 °C 1034.8 hPa SE 11.3 km/h 16.1 km/h 59 % 0 mm
17:17 8.8 °C 1.2 °C 1034.4 hPa ESE 9.7 km/h 16.1 km/h 59 % 0 mm
17:22 8.7 °C 1.4 °C 1034.4 hPa SW 6.4 km/h 16.1 km/h 60 % 0 mm
17:27 8.6 °C 1.5 °C 1034.4 hPa SE 3.2 km/h 16.1 km/h 61 % 0 mm
17:32 8.4 °C 1.5 °C 1034.4 hPa SE 4.8 km/h 12.9 km/h 62 % 0 mm
17:37 8.3 °C 1.4 °C 1034.4 hPa SSE 3.2 km/h 12.9 km/h 62 % 0 mm
17:42 8.2 °C 1.6 °C 1034.4 hPa South 8 km/h 14.5 km/h 63 % 0 mm
17:47 8.2 °C 1.6 °C 1034.4 hPa ESE 11.3 km/h 14.5 km/h 63 % 0 mm
17:52 8 °C 1.6 °C 1034.4 hPa ESE 8 km/h 14.5 km/h 64 % 0 mm
17:57 7.9 °C 1.7 °C 1034.1 hPa SE 1.6 km/h 12.9 km/h 65 % 0 mm
18:02 7.8 °C 1.6 °C 1034.4 hPa Calm   12.9 km/h 65 % 0 mm
18:07 7.7 °C 1.7 °C 1034.1 hPa ESE 6.4 km/h 9.7 km/h 66 % 0 mm
18:12 7.6 °C 1.9 °C 1034.1 hPa SE 1.6 km/h 9.7 km/h 67 % 0 mm
18:17 7.4 °C 1.7 °C 1034.1 hPa SE 3.2 km/h 9.7 km/h 67 % 0 mm
18:22 7.3 °C 1.8 °C 1034.1 hPa East 3.2 km/h 9.7 km/h 68 % 0 mm
18:27 7.3 °C 2 °C 1034.1 hPa ESE 1.6 km/h 8 km/h 69 % 0 mm
18:32 7.2 °C 1.9 °C 1034.1 hPa SE 1.6 km/h 8 km/h 69 % 0 mm
18:37 7.1 °C 2 °C 1034.1 hPa ESE 1.6 km/h 8 km/h 70 % 0 mm
18:42 6.9 °C 1.8 °C 1033.7 hPa East 1.6 km/h 6.4 km/h 70 % 0 mm
18:47 6.8 °C 1.9 °C 1033.7 hPa ESE 3.2 km/h 6.4 km/h 71 % 0 mm
18:52 6.8 °C 1.9 °C 1033.7 hPa SE 4.8 km/h 9.7 km/h 71 % 0 mm
18:57 6.7 °C 2 °C 1033.7 hPa SE 1.6 km/h 9.7 km/h 72 % 0 mm
19:02 6.6 °C 1.9 °C 1033.7 hPa ESE 3.2 km/h 9.7 km/h 72 % 0 mm
19:07 6.5 °C 2 °C 1033.7 hPa ESE 4.8 km/h 8 km/h 73 % 0 mm
19:12 6.4 °C 1.9 °C 1033.7 hPa SE 1.6 km/h 8 km/h 73 % 0 mm
19:17 6.4 °C 2.1 °C 1033.7 hPa ESE 3.2 km/h 11.3 km/h 74 % 0 mm
19:22 6.4 °C 2.1 °C 1033.4 hPa SSE 4.8 km/h 11.3 km/h 74 % 0 mm
19:27 6.4 °C 2.3 °C 1033.7 hPa SE 3.2 km/h 11.3 km/h 75 % 0 mm
19:32 6.4 °C 2.3 °C 1033.4 hPa SE 4.8 km/h 9.7 km/h 75 % 0 mm
19:37 6.3 °C 2.2 °C 1033.4 hPa SE 1.6 km/h 8 km/h 75 % 0 mm
19:42 6.3 °C 2.4 °C 1033.7 hPa ESE 1.6 km/h 8 km/h 76 % 0 mm
19:47 6.2 °C 2.3 °C 1033.7 hPa ESE 3.2 km/h 6.4 km/h 76 % 0 mm
19:52 6.2 °C 2.5 °C 1033.7 hPa ESE 6.4 km/h 6.4 km/h 77 % 0 mm
19:57 6.2 °C 2.5 °C 1033.7 hPa ESE 3.2 km/h 8 km/h 77 % 0 mm
20:02 6.1 °C 2.4 °C 1034.1 hPa Calm   8 km/h 77 % 0 mm
20:07 6 °C 2.3 °C 1034.1 hPa Calm   8 km/h 77 % 0 mm
20:12 6 °C 2.5 °C 1034.1 hPa Calm   6.4 km/h 78 % 0 mm
20:17 5.9 °C 2.4 °C 1034.4 hPa Calm   6.4 km/h 78 % 0 mm
20:22 5.8 °C 2.3 °C 1034.4 hPa Calm   4.8 km/h 78 % 0 mm
20:27 5.7 °C 2.2 °C 1034.4 hPa Calm   4.8 km/h 78 % 0 mm
20:32 5.5 °C 2.1 °C 1034.4 hPa Calm   1.6 km/h 79 % 0 mm
20:33 5.5 °C 2.1 °C 1034.8 hPa Calm   1.6 km/h 79 % 0 mm
20:38 5.4 °C 2.2 °C 1034.8 hPa Calm   1.6 km/h 80 % 0 mm
20:43 5.3 °C 2.1 °C 1034.4 hPa Calm   3.2 km/h 80 % 0 mm
20:48 5.3 °C 2.1 °C 1034.4 hPa Calm   3.2 km/h 80 % 0 mm
20:53 5.3 °C 2.1 °C 1034.4 hPa Calm   6.4 km/h 80 % 0 mm
20:58 5.2 °C 2 °C 1034.4 hPa Calm   6.4 km/h 80 % 0 mm
21:03 5.1 °C 1.9 °C 1034.4 hPa East 1.6 km/h 6.4 km/h 80 % 0 mm
21:08 5.1 °C 1.9 °C 1034.8 hPa Calm   3.2 km/h 80 % 0 mm
21:13 4.9 °C 1.7 °C 1034.8 hPa Calm   1.6 km/h 80 % 0 mm
21:18 4.8 °C 1.6 °C 1034.8 hPa Calm   1.6 km/h 80 % 0 mm
21:23 4.7 °C 1.7 °C 1034.8 hPa Calm   1.6 km/h 81 % 0 mm
21:28 4.6 °C 1.8 °C 1034.4 hPa Calm   1.6 km/h 82 % 0 mm
21:33 4.5 °C 1.7 °C 1034.4 hPa Calm   1.6 km/h 82 % 0 mm
21:38 4.3 °C 1.5 °C 1034.8 hPa Calm   1.6 km/h 82 % 0 mm
21:43 4.2 °C 1.6 °C 1034.8 hPa Calm   1.6 km/h 83 % 0 mm
21:48 4.2 °C 1.6 °C 1034.8 hPa Calm   1.6 km/h 83 % 0 mm
21:53 4.2 °C 1.6 °C 1034.4 hPa Calm   1.6 km/h 83 % 0 mm
21:58 4.1 °C 1.5 °C 1034.4 hPa Calm   1.6 km/h 83 % 0 mm
22:03 4.2 °C 1.7 °C 1034.4 hPa ESE 1.6 km/h 1.6 km/h 84 % 0 mm
22:08 4.4 °C 1.9 °C 1034.4 hPa Calm   3.2 km/h 84 % 0 mm
22:13 4.6 °C 2.1 °C 1034.4 hPa Calm   3.2 km/h 84 % 0 mm
22:19 4.7 °C 2.1 °C 1034.4 hPa Calm   3.2 km/h 83 % 0 mm
22:24 4.8 °C 2.2 °C 1034.1 hPa Calm   3.2 km/h 83 % 0 mm
22:29 4.8 °C 2 °C 1034.4 hPa ENE 1.6 km/h 4.8 km/h 82 % 0 mm
22:34 4.9 °C 2.1 °C 1034.4 hPa ENE 1.6 km/h 4.8 km/h 82 % 0 mm
22:39 5.1 °C 2.1 °C 1034.1 hPa SE 1.6 km/h 4.8 km/h 81 % 0 mm
22:44 5.2 °C 2.2 °C 1034.1 hPa SE 1.6 km/h 4.8 km/h 81 % 0 mm
22:49 5.3 °C 2.1 °C 1033.7 hPa ESE 3.2 km/h 4.8 km/h 80 % 0 mm
22:54 5.3 °C 2 °C 1033.7 hPa ESE 3.2 km/h 6.4 km/h 79 % 0 mm
22:59 5.4 °C 2.1 °C 1033.7 hPa ESE 3.2 km/h 6.4 km/h 79 % 0 mm
23:04 5.5 °C 2.1 °C 1033.7 hPa Calm   8 km/h 79 % 0 mm
23:09 5.6 °C 2.2 °C 1033.7 hPa Calm   8 km/h 79 % 0 mm
23:14 5.6 °C 2.2 °C 1033.7 hPa Calm   8 km/h 79 % 0 mm
23:19 5.7 °C 2.2 °C 1033.7 hPa Calm   4.8 km/h 78 % 0 mm
23:24 5.7 °C 2.2 °C 1033.7 hPa ESE 3.2 km/h 4.8 km/h 78 % 0 mm
23:29 5.7 °C 2.2 °C 1033.4 hPa Calm   3.2 km/h 78 % 0 mm
23:34 5.7 °C 2.2 °C 1033.4 hPa Calm   3.2 km/h 78 % 0 mm
23:39 5.8 °C 2.4 °C 1033.4 hPa ESE 1.6 km/h 3.2 km/h 79 % 0 mm
23:44 5.8 °C 2.4 °C 1033.4 hPa Calm   1.6 km/h 79 % 0 mm
23:49 5.9 °C 2.5 °C 1033.4 hPa ENE 1.6 km/h 3.2 km/h 79 % 0 mm
23:54 5.9 °C 2.5 °C 1033.4 hPa Calm   3.2 km/h 79 % 0 mm
23:59 5.9 °C 2.5 °C 1033.1 hPa East 3.2 km/h 3.2 km/h 79 % 0 mm
Spring, Texas: Villages of Bridgestone
Compliments of Weather Underground - 3.25 mb

Script developed by  Jim McMurry - jmcmurry@mwt.net Adapted for the template by  Wim van der Kuil - Leuven-Template.eu

You find our weather info also at:

UK Metoffice

WeatherCloud

Weather Underground

Mid-South Weather Network

AWEKAS

Citizen Weather Observer Program (CWOP)

HAMweather, WeatherForYou, PWS Weather

Equipment we use:

Weather-station
Davis Vantage Vue

Weather-program
Meteohub

Weather-server
Debian 7.9 x86 (Guest)

Provider
DreamHost

Davis Vantage Vue

Meteohub

Debian 7.9 x86 (Guest)

DreamHost